Time,TemperatureF,DewpointF,PressureIn,WindDirection,WindDirectionDegrees,WindSpeedMPH,WindSpeedGustMPH,Humidity,HourlyPrecipIn,Conditions,Clouds,dailyrainin,SoftwareType,DateUTC
2013-11-04 00:01:00,31.9,28.8,30.44,NE,56,0.0,0.0,88,0.00,CLR,,0.00,WeatherDisplay:10.37,2013-11-04 05:01:00,
2013-11-04 00:06:00,31.8,28.7,30.44,NE,56,0.0,0.0,88,0.00,CLR,,0.00,WeatherDisplay:10.37,2013-11-04 05:06:00,
2013-11-04 00:11:00,31.7,28.6,30.45,NE,56,0.0,0.0,88,0.00,CLR,,0.00,WeatherDisplay:10.37,2013-11-04 05:11:00,
2013-11-04 00:16:00,31.6,28.5,30.45,NE,56,0.0,0.0,88,0.00,CLR,,0.00,WeatherDisplay:10.37,2013-11-04 05:16:00,
2013-11-04 00:21:00,31.5,28.4,30.45,NE,56,0.0,0.0,88,0.00,CLR,,0.00,WeatherDisplay:10.37,2013-11-04 05:21:00,
2013-11-04 00:26:00,31.5,28.4,30.45,NE,56,0.0,0.0,88,0.00,CLR,,0.00,WeatherDisplay:10.37,2013-11-04 05:26:00,
2013-11-04 00:31:00,31.4,28.3,30.45,NE,56,0.0,0.0,88,0.00,CLR,,0.00,WeatherDisplay:10.37,2013-11-04 05:31:00,
2013-11-04 00:36:00,31.3,28.2,30.45,NE,56,0.0,0.0,88,0.00,CLR,,0.00,WeatherDisplay:10.37,2013-11-04 05:36:00,
2013-11-04 00:41:00,31.3,28.2,30.45,NE,56,0.0,0.0,88,0.00,CLR,,0.00,WeatherDisplay:10.37,2013-11-04 05:41:00,
2013-11-04 00:46:00,31.2,28.1,30.45,NE,56,0.0,0.0,88,0.00,CLR,,0.00,WeatherDisplay:10.37,2013-11-04 05:46:00,
2013-11-04 00:51:00,31.2,28.1,30.46,NE,56,0.0,0.0,88,0.00,CLR,,0.00,WeatherDisplay:10.37,2013-11-04 05:51:00,
2013-11-04 00:56:00,31.1,28.0,30.46,NE,56,0.0,0.0,88,0.00,CLR,,0.00,WeatherDisplay:10.37,2013-11-04 05:56:00,
2013-11-04 01:01:00,31.1,28.0,30.46,NE,56,0.0,0.0,88,0.00,CLR,,0.00,WeatherDisplay:10.37,2013-11-04 06:01:00,
2013-11-04 01:06:00,31.0,27.9,30.46,NE,56,0.0,0.0,88,0.00,CLR,,0.00,WeatherDisplay:10.37,2013-11-04 06:06:00,
2013-11-04 01:11:00,30.9,27.8,30.46,NE,56,0.0,0.0,88,0.00,CLR,,0.00,WeatherDisplay:10.37,2013-11-04 06:11:00,
2013-11-04 01:16:00,30.9,27.8,30.46,NE,56,0.0,0.0,88,0.00,CLR,,0.00,WeatherDisplay:10.37,2013-11-04 06:16:00,
2013-11-04 01:21:00,30.9,28.0,30.45,NE,56,0.0,0.0,89,0.00,CLR,,0.00,WeatherDisplay:10.37,2013-11-04 06:21:00,
2013-11-04 01:26:00,30.9,28.0,30.45,NE,56,0.0,0.0,89,0.00,CLR,,0.00,WeatherDisplay:10.37,2013-11-04 06:26:00,
2013-11-04 01:31:00,30.8,27.9,30.45,NE,56,0.0,0.0,89,0.00,CLR,,0.00,WeatherDisplay:10.37,2013-11-04 06:31:00,
2013-11-04 01:36:00,30.7,27.8,30.46,NE,56,0.0,0.0,89,0.00,CLR,,0.00,WeatherDisplay:10.37,2013-11-04 06:36:00,
2013-11-04 01:41:00,30.7,27.8,30.45,NE,56,0.0,0.0,89,0.00,CLR,,0.00,WeatherDisplay:10.37,2013-11-04 06:41:00,
2013-11-04 01:46:00,30.7,27.8,30.46,NE,56,0.0,0.0,89,0.00,CLR,,0.00,WeatherDisplay:10.37,2013-11-04 06:46:00,
2013-11-04 01:51:00,30.7,27.8,30.46,NE,56,0.0,0.0,89,0.00,CLR,,0.00,WeatherDisplay:10.37,2013-11-04 06:51:00,
2013-11-04 01:56:00,30.7,27.8,30.46,NE,56,0.0,0.0,89,0.00,CLR,,0.00,WeatherDisplay:10.37,2013-11-04 06:56:00,
2013-11-04 02:01:00,30.7,27.8,30.46,NE,56,0.0,0.0,89,0.00,CLR,,0.00,WeatherDisplay:10.37,2013-11-04 07:01:00,
2013-11-04 02:06:00,30.7,27.8,30.46,NE,56,0.0,0.0,89,0.00,CLR,,0.00,WeatherDisplay:10.37,2013-11-04 07:06:00,
2013-11-04 02:11:00,30.7,27.8,30.45,NE,56,0.0,0.0,89,0.00,CLR,,0.00,WeatherDisplay:10.37,2013-11-04 07:11:00,
2013-11-04 02:16:00,30.7,27.8,30.45,NE,56,0.0,0.0,89,0.00,CLR,,0.00,WeatherDisplay:10.37,2013-11-04 07:16:00,
2013-11-04 02:21:00,30.7,27.8,30.45,NE,56,0.0,0.0,89,0.00,CLR,,0.00,WeatherDisplay:10.37,2013-11-04 07:21:00,
2013-11-04 02:26:00,30.7,27.8,30.45,NE,56,0.0,0.0,89,0.00,CLR,,0.00,WeatherDisplay:10.37,2013-11-04 07:26:00,
2013-11-04 02:31:00,30.8,27.9,30.46,NE,56,0.0,0.0,89,0.00,CLR,,0.00,WeatherDisplay:10.37,2013-11-04 07:31:00,
2013-11-04 02:36:00,31.0,28.1,30.46,NE,56,0.0,0.0,89,0.00,CLR,,0.00,WeatherDisplay:10.37,2013-11-04 07:36:00,
2013-11-04 02:41:00,31.1,28.2,30.46,NE,56,0.1,0.0,89,0.00,CLR,,0.00,WeatherDisplay:10.37,2013-11-04 07:41:00,
2013-11-04 02:46:00,31.3,28.4,30.46,NE,56,0.0,0.0,89,0.00,CLR,,0.00,WeatherDisplay:10.37,2013-11-04 07:46:00,
2013-11-04 02:51:00,31.4,28.5,30.46,NE,56,0.1,1.2,89,0.00,CLR,,0.00,WeatherDisplay:10.37,2013-11-04 07:51:00,
2013-11-04 02:56:00,31.7,28.8,30.46,NE,56,0.9,4.0,89,0.00,CLR,,0.00,WeatherDisplay:10.37,2013-11-04 07:56:00,
2013-11-04 03:01:00,32.1,29.2,30.46,NE,56,0.0,0.0,89,0.00,CLR,,0.00,WeatherDisplay:10.37,2013-11-04 08:01:00,
2013-11-04 03:06:00,32.5,29.6,30.46,NE,56,0.0,0.0,89,0.00,CLR,,0.00,WeatherDisplay:10.37,2013-11-04 08:06:00,
2013-11-04 03:11:00,32.9,30.0,30.47,NE,56,0.0,0.0,89,0.00,CLR,,0.00,WeatherDisplay:10.37,2013-11-04 08:11:00,
2013-11-04 03:16:00,33.1,30.2,30.46,NE,56,0.0,1.2,89,0.00,CLR,,0.00,WeatherDisplay:10.37,2013-11-04 08:16:00,
2013-11-04 03:21:00,33.5,30.6,30.46,ENE,57,0.0,0.0,89,0.00,CLR,,0.00,WeatherDisplay:10.37,2013-11-04 08:21:00,
2013-11-04 03:26:00,33.7,30.8,30.46,ENE,57,0.0,0.0,89,0.00,CLR,,0.00,WeatherDisplay:10.37,2013-11-04 08:26:00,
2013-11-04 03:31:00,33.8,30.9,30.47,ENE,57,0.0,0.0,89,0.00,CLR,,0.00,WeatherDisplay:10.37,2013-11-04 08:31:00,
2013-11-04 03:36:00,34.0,31.1,30.47,ENE,57,0.0,0.0,89,0.00,CLR,,0.00,WeatherDisplay:10.37,2013-11-04 08:36:00,
2013-11-04 03:41:00,34.2,31.3,30.47,ENE,57,0.1,0.0,89,0.00,CLR,,0.00,WeatherDisplay:10.37,2013-11-04 08:41:00,
2013-11-04 03:46:00,34.3,31.4,30.47,ENE,57,0.0,1.0,89,0.00,CLR,,0.00,WeatherDisplay:10.37,2013-11-04 08:46:00,
2013-11-04 03:51:00,34.4,31.5,30.46,ENE,60,0.0,3.5,89,0.00,CLR,,0.00,WeatherDisplay:10.37,2013-11-04 08:51:00,
2013-11-04 03:56:00,34.4,31.5,30.46,ENE,60,0.0,0.0,89,0.00,CLR,,0.00,WeatherDisplay:10.37,2013-11-04 08:56:00,
2013-11-04 04:01:00,34.3,31.4,30.46,ENE,60,0.0,0.0,89,0.00,CLR,,0.00,WeatherDisplay:10.37,2013-11-04 09:01:00,
2013-11-04 04:06:00,34.2,31.3,30.46,ENE,60,0.0,0.0,89,0.00,CLR,,0.00,WeatherDisplay:10.37,2013-11-04 09:06:00,
2013-11-04 04:11:00,34.1,31.2,30.46,ENE,60,0.0,1.2,89,0.00,CLR,,0.00,WeatherDisplay:10.37,2013-11-04 09:11:00,
2013-11-04 04:16:00,34.2,31.3,30.46,ENE,60,0.0,4.6,89,0.00,CLR,,0.00,WeatherDisplay:10.37,2013-11-04 09:16:00,
2013-11-04 04:21:00,34.4,31.5,30.46,ENE,61,0.0,1.2,89,0.00,CLR,,0.00,WeatherDisplay:10.37,2013-11-04 09:21:00,
2013-11-04 04:26:00,34.6,31.7,30.46,ENE,61,0.0,1.2,89,0.00,CLR,,0.00,WeatherDisplay:10.37,2013-11-04 09:26:00,
2013-11-04 04:31:00,34.5,31.6,30.46,ENE,62,0.0,0.0,89,0.00,CLR,,0.00,WeatherDisplay:10.37,2013-11-04 09:31:00,
2013-11-04 04:36:00,34.4,31.5,30.46,ENE,62,0.0,0.0,89,0.00,CLR,,0.00,WeatherDisplay:10.37,2013-11-04 09:36:00,
2013-11-04 04:41:00,34.3,31.4,30.46,ENE,62,0.4,2.3,89,0.00,CLR,,0.00,WeatherDisplay:10.37,2013-11-04 09:41:00,
2013-11-04 04:46:00,34.5,31.6,30.47,ENE,66,0.3,3.5,89,0.00,CLR,,0.00,WeatherDisplay:10.37,2013-11-04 09:46:00,
2013-11-04 04:51:00,34.7,31.8,30.47,East,90,1.4,0.0,89,0.00,CLR,,0.00,WeatherDisplay:10.37,2013-11-04 09:51:00,
2013-11-04 04:56:00,34.9,32.0,30.47,East,90,0.0,0.0,89,0.00,CLR,,0.00,WeatherDisplay:10.37,2013-11-04 09:56:00,
2013-11-04 05:01:00,34.9,32.0,30.46,East,92,0.4,1.2,89,0.00,CLR,,0.00,WeatherDisplay:10.37,2013-11-04 10:01:00,
2013-11-04 05:06:00,35.0,32.1,30.46,East,94,0.0,1.2,89,0.00,CLR,,0.00,WeatherDisplay:10.37,2013-11-04 10:06:00,
2013-11-04 05:11:00,35.1,32.2,30.46,SE,125,1.2,3.5,89,0.00,CLR,,0.00,WeatherDisplay:10.37,2013-11-04 10:11:00,
2013-11-04 05:16:00,35.1,32.2,30.45,SE,126,0.1,2.3,89,0.00,CLR,,0.00,WeatherDisplay:10.37,2013-11-04 10:16:00,
2013-11-04 05:21:00,35.2,32.3,30.46,SE,128,1.6,1.6,89,0.00,CLR,,0.00,WeatherDisplay:10.37,2013-11-04 10:21:00,
2013-11-04 05:26:00,35.3,32.4,30.47,SE,138,0.0,4.6,89,0.00,CLR,,0.00,WeatherDisplay:10.37,2013-11-04 10:26:00,
2013-11-04 05:31:00,35.4,32.5,30.46,SE,131,0.2,2.3,89,0.00,CLR,,0.00,WeatherDisplay:10.37,2013-11-04 10:31:00,
2013-11-04 05:36:00,35.6,32.7,30.46,SE,129,1.5,5.8,89,0.00,CLR,,0.00,WeatherDisplay:10.37,2013-11-04 10:36:00,
2013-11-04 05:41:00,35.7,32.8,30.47,SE,129,1.9,2.0,89,0.00,CLR,,0.00,WeatherDisplay:10.37,2013-11-04 10:41:00,
2013-11-04 05:46:00,35.7,32.8,30.47,SE,129,0.0,3.5,89,0.00,CLR,,0.00,WeatherDisplay:10.37,2013-11-04 10:46:00,
2013-11-04 05:51:00,35.6,32.4,30.47,SE,131,0.2,3.5,88,0.00,CLR,,0.00,WeatherDisplay:10.37,2013-11-04 10:51:00,
2013-11-04 05:56:00,35.5,32.3,30.46,SE,131,0.0,0.0,88,0.00,CLR,,0.00,WeatherDisplay:10.37,2013-11-04 10:56:00,
2013-11-04 06:01:00,35.4,32.2,30.47,SE,131,0.0,0.0,88,0.00,CLR,,0.00,WeatherDisplay:10.37,2013-11-04 11:01:00,
2013-11-04 06:06:00,35.1,31.9,30.46,SE,131,0.0,0.0,88,0.00,CLR,,0.00,WeatherDisplay:10.37,2013-11-04 11:06:00,
2013-11-04 06:11:00,34.9,31.4,30.47,SE,131,0.0,0.0,87,0.00,CLR,,0.00,WeatherDisplay:10.37,2013-11-04 11:11:00,
2013-11-04 06:14:00,34.8,31.3,30.47,SE,131,0.0,0.0,87,0.00,CLR,,0.00,WeatherDisplay:10.37,2013-11-04 11:14:00,
2013-11-04 06:19:00,34.5,31.0,30.47,SE,131,0.0,0.0,87,0.00,CLR,,0.00,WeatherDisplay:10.37,2013-11-04 11:19:00,
2013-11-04 06:22:00,34.4,30.9,30.47,SE,131,0.0,0.0,87,0.00,CLR,,0.00,WeatherDisplay:10.37,2013-11-04 11:22:00,
2013-11-04 06:27:00,34.2,30.7,30.46,SE,131,0.0,0.0,87,0.00,CLR,,0.00,WeatherDisplay:10.37,2013-11-04 11:27:00,
2013-11-04 06:32:00,34.1,30.6,30.46,SE,131,0.0,0.0,87,0.00,CLR,,0.00,WeatherDisplay:10.37,2013-11-04 11:32:00,
2013-11-04 06:37:00,34.0,30.5,30.47,SE,131,0.0,0.0,87,0.00,CLR,,0.00,WeatherDisplay:10.37,2013-11-04 11:37:00,
2013-11-04 06:42:00,34.0,30.5,30.48,SE,131,0.0,0.0,87,0.00,CLR,,0.00,WeatherDisplay:10.37,2013-11-04 11:42:00,
2013-11-04 06:47:00,33.9,30.4,30.47,SE,131,0.0,0.0,87,0.00,CLR,,0.00,WeatherDisplay:10.37,2013-11-04 11:47:00,
2013-11-04 06:52:00,33.9,30.4,30.47,SE,131,0.0,0.0,87,0.00,CLR,,0.00,WeatherDisplay:10.37,2013-11-04 11:52:00,
2013-11-04 06:57:00,33.9,30.4,30.46,SE,131,0.0,0.0,87,0.00,CLR,,0.00,WeatherDisplay:10.37,2013-11-04 11:57:00,
2013-11-04 07:02:00,33.8,30.3,30.47,SE,131,0.0,0.0,87,0.00,CLR,,0.00,WeatherDisplay:10.37,2013-11-04 12:02:00,
2013-11-04 07:07:00,33.9,30.4,30.47,SE,131,0.0,0.0,87,0.00,CLR,,0.00,WeatherDisplay:10.37,2013-11-04 12:07:00,
2013-11-04 07:12:00,33.9,30.4,30.46,SE,131,0.0,0.0,87,0.00,CLR,,0.00,WeatherDisplay:10.37,2013-11-04 12:12:00,
2013-11-04 07:17:00,33.9,30.4,30.46,SE,131,0.0,0.0,87,0.00,CLR,,0.00,WeatherDisplay:10.37,2013-11-04 12:17:00,
2013-11-04 07:22:00,33.9,30.4,30.47,SE,131,0.0,0.0,87,0.00,CLR,,0.00,WeatherDisplay:10.37,2013-11-04 12:22:00,
2013-11-04 07:27:00,33.9,30.4,30.47,SE,131,0.0,0.0,87,0.00,CLR,,0.00,WeatherDisplay:10.37,2013-11-04 12:27:00,
2013-11-04 07:32:00,33.9,30.4,30.47,SE,131,0.0,0.0,87,0.00,CLR,,0.00,WeatherDisplay:10.37,2013-11-04 12:32:00,
2013-11-04 07:37:00,34.0,30.5,30.47,SE,131,0.0,0.0,87,0.00,CLR,,0.00,WeatherDisplay:10.37,2013-11-04 12:37:00,
2013-11-04 07:42:00,34.1,30.6,30.47,SE,131,0.0,0.0,87,0.00,CLR,,0.00,WeatherDisplay:10.37,2013-11-04 12:42:00,
2013-11-04 07:47:00,34.3,30.8,30.47,SE,131,0.0,0.0,87,0.00,CLR,,0.00,WeatherDisplay:10.37,2013-11-04 12:47:00,
2013-11-04 07:52:00,34.5,31.0,30.48,SE,131,0.0,0.0,87,0.00,CLR,,0.00,WeatherDisplay:10.37,2013-11-04 12:52:00,
2013-11-04 07:57:00,34.8,31.3,30.48,SE,131,0.0,1.2,87,0.00,CLR,,0.00,WeatherDisplay:10.37,2013-11-04 12:57:00,
2013-11-04 08:02:00,35.0,31.5,30.47,SE,131,0.0,0.0,87,0.00,CLR,,0.00,WeatherDisplay:10.37,2013-11-04 13:02:00,
2013-11-04 08:07:00,35.2,31.7,30.47,SE,131,0.0,0.0,87,0.00,CLR,,0.00,WeatherDisplay:10.37,2013-11-04 13:07:00,
2013-11-04 08:12:00,35.4,31.9,30.48,SE,124,0.4,2.3,87,0.00,CLR,,0.00,WeatherDisplay:10.37,2013-11-04 13:12:00,
2013-11-04 08:17:00,35.8,32.3,30.48,SE,126,0.0,0.0,87,0.00,CLR,,0.00,WeatherDisplay:10.37,2013-11-04 13:17:00,
2013-11-04 08:22:00,36.4,32.9,30.48,SE,126,0.0,1.2,87,0.00,CLR,,0.00,WeatherDisplay:10.37,2013-11-04 13:22:00,
2013-11-04 08:27:00,37.2,33.4,30.47,SE,128,2.3,7.0,86,0.00,CLR,,0.00,WeatherDisplay:10.37,2013-11-04 13:27:00,
2013-11-04 08:32:00,37.8,33.7,30.47,ESE,121,1.2,4.6,85,0.00,CLR,,0.00,WeatherDisplay:10.37,2013-11-04 13:32:00,
2013-11-04 08:37:00,38.2,33.8,30.47,SE,129,0.2,2.3,84,0.00,CLR,,0.00,WeatherDisplay:10.37,2013-11-04 13:37:00,
2013-11-04 08:42:00,38.5,34.1,30.46,ESE,121,2.3,5.8,84,0.00,CLR,,0.00,WeatherDisplay:10.37,2013-11-04 13:42:00,
2013-11-04 08:47:00,38.9,34.2,30.46,ESE,119,0.2,4.0,83,0.00,CLR,,0.00,WeatherDisplay:10.37,2013-11-04 13:47:00,
2013-11-04 08:52:00,39.2,34.5,30.46,SE,127,0.3,2.3,83,0.00,CLR,,0.00,WeatherDisplay:10.37,2013-11-04 13:52:00,
2013-11-04 08:57:00,39.7,35.0,30.46,SE,128,0.4,2.3,83,0.00,CLR,,0.00,WeatherDisplay:10.37,2013-11-04 13:57:00,
2013-11-04 09:02:00,40.2,35.1,30.46,SSE,149,1.8,3.5,82,0.00,CLR,,0.00,WeatherDisplay:10.37,2013-11-04 14:02:00,
2013-11-04 09:07:00,40.5,35.1,30.46,SE,143,2.8,6.9,81,0.00,CLR,,0.00,WeatherDisplay:10.37,2013-11-04 14:07:00,
2013-11-04 09:12:00,40.7,35.0,30.46,SE,135,3.5,9.2,80,0.00,CLR,,0.00,WeatherDisplay:10.37,2013-11-04 14:12:00,
2013-11-04 09:17:00,41.0,35.3,30.46,SE,126,0.3,3.5,80,0.00,CLR,,0.00,WeatherDisplay:10.37,2013-11-04 14:17:00,
2013-11-04 09:22:00,41.1,35.4,30.46,SE,142,1.9,5.8,80,0.00,CLR,,0.00,WeatherDisplay:10.37,2013-11-04 14:22:00,
2013-11-04 09:27:00,41.2,35.2,30.46,SSE,150,0.0,0.0,79,0.00,CLR,,0.00,WeatherDisplay:10.37,2013-11-04 14:27:00,
2013-11-04 09:32:00,41.3,35.3,30.46,SE,135,2.9,6.0,79,0.00,CLR,,0.00,WeatherDisplay:10.37,2013-11-04 14:32:00,
2013-11-04 09:37:00,41.4,35.1,30.46,SSE,159,1.5,4.6,78,0.00,CLR,,0.00,WeatherDisplay:10.37,2013-11-04 14:37:00,
2013-11-04 09:42:00,41.6,35.2,30.46,SE,136,0.0,1.2,78,0.00,CLR,,0.00,WeatherDisplay:10.37,2013-11-04 14:42:00,
2013-11-04 09:47:00,41.9,35.2,30.47,SSE,154,0.4,8.0,77,0.00,CLR,,0.00,WeatherDisplay:10.37,2013-11-04 14:47:00,
2013-11-04 09:52:00,42.3,35.3,30.47,SSE,163,0.6,3.5,76,0.00,CLR,,0.00,WeatherDisplay:10.37,2013-11-04 14:52:00,
2013-11-04 09:57:00,42.9,35.2,30.46,South,180,4.0,6.9,74,0.00,CLR,,0.00,WeatherDisplay:10.37,2013-11-04 14:57:00,
2013-11-04 10:02:00,43.8,36.0,30.45,East,94,3.0,6.9,74,0.00,CLR,,0.00,WeatherDisplay:10.37,2013-11-04 15:02:00,
2013-11-04 10:07:00,45.0,35.8,30.45,ESE,104,1.4,4.6,70,0.00,CLR,,0.00,WeatherDisplay:10.37,2013-11-04 15:07:00,
2013-11-04 10:12:00,45.1,35.5,30.45,SE,139,1.6,4.6,69,0.00,CLR,,0.00,WeatherDisplay:10.37,2013-11-04 15:12:00,
2013-11-04 10:17:00,44.6,34.7,30.45,SSE,150,4.2,6.9,68,0.00,CLR,,0.00,WeatherDisplay:10.37,2013-11-04 15:17:00,
2013-11-04 10:22:00,44.2,34.7,30.45,SSE,157,6.1,8.1,69,0.00,CLR,,0.00,WeatherDisplay:10.37,2013-11-04 15:22:00,
2013-11-04 10:27:00,43.9,34.4,30.45,ESE,104,4.5,8.1,69,0.00,CLR,,0.00,WeatherDisplay:10.37,2013-11-04 15:27:00,
2013-11-04 10:32:00,43.8,34.6,30.45,ESE,120,5.3,9.2,70,0.00,CLR,,0.00,WeatherDisplay:10.37,2013-11-04 15:32:00,
2013-11-04 10:37:00,43.9,34.7,30.45,ESE,105,3.9,12.7,70,0.00,CLR,,0.00,WeatherDisplay:10.37,2013-11-04 15:37:00,
2013-11-04 10:42:00,44.2,34.7,30.45,SSE,155,5.4,11.5,69,0.00,CLR,,0.00,WeatherDisplay:10.37,2013-11-04 15:42:00,
2013-11-04 10:47:00,44.9,35.3,30.46,SE,139,3.2,8.1,69,0.00,CLR,,0.00,WeatherDisplay:10.37,2013-11-04 15:47:00,
2013-11-04 10:52:00,45.3,35.0,30.46,ESE,114,1.1,4.6,67,0.00,CLR,,0.00,WeatherDisplay:10.37,2013-11-04 15:52:00,
2013-11-04 10:57:00,46.3,36.3,30.46,SE,126,0.1,1.2,68,0.00,CLR,,0.00,WeatherDisplay:10.37,2013-11-04 15:57:00,
2013-11-04 11:02:00,46.5,35.4,30.46,South,183,5.4,9.2,65,0.00,CLR,,0.00,WeatherDisplay:10.37,2013-11-04 16:02:00,
2013-11-04 11:07:00,46.2,34.3,30.46,SSE,150,2.3,6.0,63,0.00,CLR,,0.00,WeatherDisplay:10.37,2013-11-04 16:07:00,
2013-11-04 11:12:00,46.4,34.5,30.46,SSE,159,5.2,9.2,63,0.00,CLR,,0.00,WeatherDisplay:10.37,2013-11-04 16:12:00,
2013-11-04 11:17:00,46.6,34.7,30.46,SSE,159,0.8,6.0,63,0.00,CLR,,0.00,WeatherDisplay:10.37,2013-11-04 16:17:00,
2013-11-04 11:22:00,47.1,34.3,30.46,SSE,157,5.6,11.5,61,0.00,CLR,,0.00,WeatherDisplay:10.37,2013-11-04 16:22:00,
2013-11-04 11:27:00,47.2,34.0,30.46,SSE,157,6.0,11.5,60,0.00,CLR,,0.00,WeatherDisplay:10.37,2013-11-04 16:27:00,
2013-11-04 11:32:00,47.3,34.5,30.45,SSE,167,3.6,5.8,61,0.00,CLR,,0.00,WeatherDisplay:10.37,2013-11-04 16:32:00,
2013-11-04 11:37:00,47.7,34.5,30.45,SSE,157,0.5,3.0,60,0.00,CLR,,0.00,WeatherDisplay:10.37,2013-11-04 16:37:00,
2013-11-04 11:42:00,48.2,34.5,30.45,South,188,0.7,4.6,59,0.00,CLR,,0.00,WeatherDisplay:10.37,2013-11-04 16:42:00,
2013-11-04 11:47:00,48.6,34.9,30.45,ESE,120,1.3,4.6,59,0.00,CLR,,0.00,WeatherDisplay:10.37,2013-11-04 16:47:00,
2013-11-04 11:52:00,48.7,34.1,30.44,SE,142,4.8,9.2,57,0.00,CLR,,0.00,WeatherDisplay:10.37,2013-11-04 16:52:00,
2013-11-04 11:57:00,48.2,33.2,30.44,SSE,150,5.4,8.1,56,0.00,CLR,,0.00,WeatherDisplay:10.37,2013-11-04 16:57:00,
2013-11-04 12:02:00,48.1,32.7,30.44,SSW,200,7.3,15.0,55,0.00,CLR,,0.00,WeatherDisplay:10.37,2013-11-04 17:02:00,
2013-11-04 12:07:00,47.8,33.3,30.44,ESE,123,3.7,9.2,57,0.00,CLR,,0.00,WeatherDisplay:10.37,2013-11-04 17:07:00,
2013-11-04 12:12:00,48.1,34.0,30.43,SE,140,0.2,1.2,58,0.00,CLR,,0.00,WeatherDisplay:10.37,2013-11-04 17:12:00,
2013-11-04 12:17:00,48.3,34.2,30.42,ESE,111,2.7,5.8,58,0.00,CLR,,0.00,WeatherDisplay:10.37,2013-11-04 17:17:00,
2013-11-04 12:22:00,48.2,34.1,30.42,SE,128,7.1,11.5,58,0.00,CLR,,0.00,WeatherDisplay:10.37,2013-11-04 17:22:00,
2013-11-04 12:27:00,48.0,33.5,30.42,SSE,160,5.7,10.4,57,0.00,CLR,,0.00,WeatherDisplay:10.37,2013-11-04 17:27:00,
2013-11-04 12:32:00,47.8,33.3,30.41,SE,128,4.0,8.1,57,0.00,CLR,,0.00,WeatherDisplay:10.37,2013-11-04 17:32:00,
2013-11-04 12:37:00,47.8,32.9,30.41,SSE,154,2.5,6.9,56,0.00,CLR,,0.00,WeatherDisplay:10.37,2013-11-04 17:37:00,
2013-11-04 12:42:00,47.9,33.4,30.40,ESE,118,2.2,11.5,57,0.00,CLR,,0.00,WeatherDisplay:10.37,2013-11-04 17:42:00,
2013-11-04 12:47:00,47.9,33.8,30.39,SSE,147,1.2,6.0,58,0.00,CLR,,0.00,WeatherDisplay:10.37,2013-11-04 17:47:00,
2013-11-04 12:52:00,47.9,32.5,30.39,East,98,0.9,4.6,55,0.00,CLR,,0.00,WeatherDisplay:10.37,2013-11-04 17:52:00,
2013-11-04 12:57:00,48.1,31.8,30.39,SSE,148,4.6,8.1,53,0.00,CLR,,0.00,WeatherDisplay:10.37,2013-11-04 17:57:00,
2013-11-04 13:02:00,48.3,32.4,30.39,SE,145,2.2,9.2,54,0.00,CLR,,0.00,WeatherDisplay:10.37,2013-11-04 18:02:00,
2013-11-04 13:07:00,48.7,33.7,30.38,SE,140,2.3,6.9,56,0.00,CLR,,0.00,WeatherDisplay:10.37,2013-11-04 18:07:00,
2013-11-04 13:12:00,49.1,32.2,30.38,SE,142,8.1,15.0,52,0.00,CLR,,0.00,WeatherDisplay:10.37,2013-11-04 18:12:00,
2013-11-04 13:17:00,49.0,32.1,30.38,SE,145,4.7,10.4,52,0.00,CLR,,0.00,WeatherDisplay:10.37,2013-11-04 18:17:00,
2013-11-04 13:22:00,49.0,32.6,30.38,East,100,2.9,6.9,53,0.00,CLR,,0.00,WeatherDisplay:10.37,2013-11-04 18:22:00,
2013-11-04 13:27:00,49.1,31.7,30.38,South,173,6.0,8.1,51,0.00,CLR,,0.00,WeatherDisplay:10.37,2013-11-04 18:27:00,
2013-11-04 13:32:00,49.4,32.0,30.38,ESE,123,3.1,6.9,51,0.00,CLR,,0.00,WeatherDisplay:10.37,2013-11-04 18:32:00,
2013-11-04 13:37:00,49.6,32.7,30.38,SE,143,2.2,10.4,52,0.00,CLR,,0.00,WeatherDisplay:10.37,2013-11-04 18:37:00,
2013-11-04 13:42:00,49.7,32.3,30.38,ESE,123,2.2,6.0,51,0.00,CLR,,0.00,WeatherDisplay:10.37,2013-11-04 18:42:00,
2013-11-04 13:47:00,49.5,32.1,30.38,SSE,166,3.9,6.9,51,0.00,CLR,,0.00,WeatherDisplay:10.37,2013-11-04 18:47:00,
2013-11-04 13:52:00,49.4,32.5,30.38,SE,132,0.2,2.0,52,0.00,CLR,,0.00,WeatherDisplay:10.37,2013-11-04 18:52:00,
2013-11-04 13:57:00,49.3,32.9,30.39,SE,130,2.6,6.9,53,0.00,CLR,,0.00,WeatherDisplay:10.37,2013-11-04 18:57:00,
2013-11-04 14:02:00,49.3,32.4,30.38,SSE,152,2.6,4.6,52,0.00,CLR,,0.00,WeatherDisplay:10.37,2013-11-04 19:02:00,
2013-11-04 14:07:00,49.2,30.8,30.38,SE,132,4.2,6.9,49,0.00,CLR,,0.00,WeatherDisplay:10.37,2013-11-04 19:07:00,
2013-11-04 14:12:00,49.3,31.9,30.38,SSE,166,3.8,7.0,51,0.00,CLR,,0.00,WeatherDisplay:10.37,2013-11-04 19:12:00,
2013-11-04 14:17:00,49.2,32.3,30.37,East,87,1.4,3.5,52,0.00,CLR,,0.00,WeatherDisplay:10.37,2013-11-04 19:17:00,
2013-11-04 14:22:00,49.2,32.3,30.37,South,178,5.1,9.2,52,0.00,CLR,,0.00,WeatherDisplay:10.37,2013-11-04 19:22:00,
2013-11-04 14:27:00,49.1,31.2,30.37,SSE,166,0.0,3.5,50,0.00,CLR,,0.00,WeatherDisplay:10.37,2013-11-04 19:27:00,
2013-11-04 14:32:00,49.1,32.2,30.37,SSE,163,4.4,11.5,52,0.00,CLR,,0.00,WeatherDisplay:10.37,2013-11-04 19:32:00,
2013-11-04 14:37:00,49.2,32.3,30.36,SE,146,2.7,6.9,52,0.00,CLR,,0.00,WeatherDisplay:10.37,2013-11-04 19:37:00,
2013-11-04 14:42:00,49.4,32.0,30.36,SSE,154,1.0,5.0,51,0.00,CLR,,0.00,WeatherDisplay:10.37,2013-11-04 19:42:00,
2013-11-04 14:47:00,49.6,32.2,30.35,SE,128,3.4,9.2,51,0.00,CLR,,0.00,WeatherDisplay:10.37,2013-11-04 19:47:00,
2013-11-04 14:52:00,49.3,31.4,30.35,ESE,109,2.0,11.5,50,0.00,CLR,,0.00,WeatherDisplay:10.37,2013-11-04 19:52:00,
2013-11-04 14:57:00,48.9,32.0,30.35,SE,135,1.5,6.9,52,0.00,CLR,,0.00,WeatherDisplay:10.37,2013-11-04 19:57:00,
2013-11-04 15:02:00,48.7,31.4,30.36,SSE,154,1.9,8.1,51,0.00,CLR,,0.00,WeatherDisplay:10.37,2013-11-04 20:02:00,
2013-11-04 15:07:00,48.4,31.6,30.36,SE,145,4.4,9.2,52,0.00,CLR,,0.00,WeatherDisplay:10.37,2013-11-04 20:07:00,
2013-11-04 15:12:00,48.3,31.9,30.35,ESE,121,2.7,6.9,53,0.00,CLR,,0.00,WeatherDisplay:10.37,2013-11-04 20:12:00,
2013-11-04 15:17:00,48.2,31.9,30.36,SE,128,3.6,6.9,53,0.00,CLR,,0.00,WeatherDisplay:10.37,2013-11-04 20:17:00,
2013-11-04 15:22:00,48.2,31.9,30.36,ESE,118,2.1,9.2,53,0.00,CLR,,0.00,WeatherDisplay:10.37,2013-11-04 20:22:00,
2013-11-04 15:27:00,48.2,31.9,30.36,South,177,1.4,5.8,53,0.00,CLR,,0.00,WeatherDisplay:10.37,2013-11-04 20:27:00,
2013-11-04 15:32:00,48.0,31.7,30.36,South,171,0.7,4.6,53,0.00,CLR,,0.00,WeatherDisplay:10.37,2013-11-04 20:32:00,
2013-11-04 15:37:00,47.9,32.0,30.37,SE,143,3.8,8.1,54,0.00,CLR,,0.00,WeatherDisplay:10.37,2013-11-04 20:37:00,
2013-11-04 15:42:00,47.8,31.9,30.37,SSE,152,1.3,4.6,54,0.00,CLR,,0.00,WeatherDisplay:10.37,2013-11-04 20:42:00,
2013-11-04 15:47:00,47.7,32.3,30.36,SE,140,1.0,4.6,55,0.00,CLR,,0.00,WeatherDisplay:10.37,2013-11-04 20:47:00,
2013-11-04 15:52:00,47.6,31.8,30.35,ESE,117,4.7,6.9,54,0.00,CLR,,0.00,WeatherDisplay:10.37,2013-11-04 20:52:00,
2013-11-04 15:57:00,47.5,32.1,30.35,SE,130,3.2,5.8,55,0.00,CLR,,0.00,WeatherDisplay:10.37,2013-11-04 20:57:00,
2013-11-04 16:02:00,47.4,32.9,30.35,SE,132,0.9,5.0,57,0.00,CLR,,0.00,WeatherDisplay:10.37,2013-11-04 21:02:00,
2013-11-04 16:07:00,47.4,33.4,30.33,SSE,147,0.0,3.5,58,0.00,CLR,,0.00,WeatherDisplay:10.37,2013-11-04 21:07:00,
2013-11-04 16:12:00,47.3,33.3,30.34,SE,131,1.8,7.0,58,0.00,CLR,,0.00,WeatherDisplay:10.37,2013-11-04 21:12:00,
2013-11-04 16:17:00,47.1,33.1,30.35,SE,126,3.5,5.8,58,0.00,CLR,,0.00,WeatherDisplay:10.37,2013-11-04 21:17:00,
2013-11-04 16:22:00,46.9,32.4,30.35,SSE,161,5.8,11.5,57,0.00,CLR,,0.00,WeatherDisplay:10.37,2013-11-04 21:22:00,
2013-11-04 16:27:00,46.7,32.7,30.35,SE,135,3.5,6.9,58,0.00,CLR,,0.00,WeatherDisplay:10.37,2013-11-04 21:27:00,
2013-11-04 16:32:00,46.5,32.9,30.35,SE,142,5.3,9.0,59,0.00,CLR,,0.00,WeatherDisplay:10.37,2013-11-04 21:32:00,
2013-11-04 16:37:00,46.4,32.8,30.36,SE,141,3.9,9.2,59,0.00,CLR,,0.00,WeatherDisplay:10.37,2013-11-04 21:37:00,
2013-11-04 16:42:00,46.3,33.2,30.35,ESE,123,5.5,9.2,60,0.00,CLR,,0.00,WeatherDisplay:10.37,2013-11-04 21:42:00,
2013-11-04 16:47:00,46.1,33.4,30.36,SE,135,1.0,3.5,61,0.00,CLR,,0.00,WeatherDisplay:10.37,2013-11-04 21:47:00,
2013-11-04 16:52:00,45.9,33.6,30.37,SSE,155,0.3,1.2,62,0.00,CLR,,0.00,WeatherDisplay:10.37,2013-11-04 21:52:00,
2013-11-04 16:57:00,45.8,33.9,30.36,SSE,150,1.7,5.8,63,0.00,CLR,,0.00,WeatherDisplay:10.37,2013-11-04 21:57:00,
2013-11-04 17:02:00,45.6,33.7,30.36,SE,132,3.5,5.8,63,0.00,CLR,,0.00,WeatherDisplay:10.37,2013-11-04 22:02:00,
2013-11-04 17:07:00,45.4,33.9,30.35,SE,141,0.0,1.2,64,0.00,CLR,,0.00,WeatherDisplay:10.37,2013-11-04 22:07:00,
2013-11-04 17:12:00,45.3,34.2,30.36,SE,131,1.0,5.8,65,0.00,CLR,,0.00,WeatherDisplay:10.37,2013-11-04 22:12:00,
2013-11-04 17:17:00,45.1,34.0,30.35,SSE,148,3.5,9.2,65,0.00,CLR,,0.00,WeatherDisplay:10.37,2013-11-04 22:17:00,
2013-11-04 17:22:00,45.0,34.3,30.36,SE,129,0.0,0.0,66,0.00,CLR,,0.00,WeatherDisplay:10.37,2013-11-04 22:22:00,
2013-11-04 17:27:00,44.9,34.2,30.36,SE,126,2.0,6.9,66,0.00,CLR,,0.00,WeatherDisplay:10.37,2013-11-04 22:27:00,
2013-11-04 17:32:00,44.8,34.1,30.36,SE,132,0.9,3.5,66,0.00,CLR,,0.00,WeatherDisplay:10.37,2013-11-04 22:32:00,
2013-11-04 17:37:00,44.6,34.3,30.35,SE,131,1.2,4.6,67,0.00,CLR,,0.00,WeatherDisplay:10.37,2013-11-04 22:37:00,
2013-11-04 17:42:00,44.3,34.0,30.34,SE,134,2.5,5.8,67,0.00,CLR,,0.00,WeatherDisplay:10.37,2013-11-04 22:42:00,
2013-11-04 17:47:00,44.3,34.4,30.34,SE,133,3.0,6.9,68,0.00,CLR,,0.00,WeatherDisplay:10.37,2013-11-04 22:47:00,
2013-11-04 17:52:00,44.1,34.2,30.34,SE,135,0.1,1.2,68,0.00,CLR,,0.00,WeatherDisplay:10.37,2013-11-04 22:52:00,
2013-11-04 17:57:00,43.9,34.4,30.34,SE,144,1.1,4.6,69,0.00,CLR,,0.00,WeatherDisplay:10.37,2013-11-04 22:57:00,
2013-11-04 18:02:00,43.7,34.2,30.33,SE,144,0.1,3.5,69,0.00,CLR,,0.00,WeatherDisplay:10.37,2013-11-04 23:02:00,
2013-11-04 18:07:00,43.5,34.4,30.33,SE,130,0.0,2.3,70,0.00,CLR,,0.00,WeatherDisplay:10.37,2013-11-04 23:07:00,
2013-11-04 18:12:00,43.3,34.5,30.33,SE,130,0.2,2.0,71,0.00,CLR,,0.00,WeatherDisplay:10.37,2013-11-04 23:12:00,
2013-11-04 18:17:00,43.3,34.5,30.33,East,90,0.0,1.2,71,0.00,CLR,,0.00,WeatherDisplay:10.37,2013-11-04 23:17:00,
2013-11-04 18:22:00,43.3,34.9,30.33,SE,132,1.2,5.8,72,0.00,CLR,,0.00,WeatherDisplay:10.37,2013-11-04 23:22:00,
2013-11-04 18:27:00,43.3,34.9,30.32,SE,135,0.0,0.0,72,0.00,CLR,,0.00,WeatherDisplay:10.37,2013-11-04 23:27:00,
2013-11-04 18:32:00,43.4,34.6,30.32,SE,131,1.8,4.6,71,0.00,CLR,,0.00,WeatherDisplay:10.37,2013-11-04 23:32:00,
2013-11-04 18:37:00,43.7,34.9,30.33,SE,144,4.3,9.2,71,0.00,CLR,,0.00,WeatherDisplay:10.37,2013-11-04 23:37:00,
2013-11-04 18:42:00,43.9,34.7,30.33,SSE,155,0.0,2.0,70,0.00,CLR,,0.00,WeatherDisplay:10.37,2013-11-04 23:42:00,
2013-11-04 18:47:00,44.0,34.8,30.34,SSE,155,0.2,2.3,70,0.00,CLR,,0.00,WeatherDisplay:10.37,2013-11-04 23:47:00,
2013-11-04 18:52:00,44.1,34.9,30.33,SE,144,1.7,3.5,70,0.00,CLR,,0.00,WeatherDisplay:10.37,2013-11-04 23:52:00,
2013-11-04 18:57:00,44.2,35.0,30.33,SE,138,1.7,6.9,70,0.00,CLR,,0.00,WeatherDisplay:10.37,2013-11-04 23:57:00,
2013-11-04 19:02:00,44.2,35.0,30.33,SE,126,0.2,2.3,70,0.00,CLR,,0.00,WeatherDisplay:10.37,2013-11-05 00:02:00,
2013-11-04 19:07:00,44.3,35.1,30.32,SE,134,1.4,3.5,70,0.00,CLR,,0.00,WeatherDisplay:10.37,2013-11-05 00:07:00,
2013-11-04 19:12:00,44.4,35.2,30.32,SE,136,1.1,3.5,70,0.00,CLR,,0.00,WeatherDisplay:10.37,2013-11-05 00:12:00,
2013-11-04 19:17:00,44.4,35.2,30.33,SSE,157,1.7,4.0,70,0.00,CLR,,0.00,WeatherDisplay:10.37,2013-11-05 00:17:00,
2013-11-04 19:22:00,44.4,35.2,30.32,SSE,148,1.8,6.0,70,0.00,CLR,,0.00,WeatherDisplay:10.37,2013-11-05 00:22:00,
2013-11-04 19:27:00,44.5,35.3,30.32,ESE,115,1.6,4.6,70,0.00,CLR,,0.00,WeatherDisplay:10.37,2013-11-05 00:27:00,
2013-11-04 19:32:00,44.5,35.3,30.33,ESE,119,0.2,4.0,70,0.00,CLR,,0.00,WeatherDisplay:10.37,2013-11-05 00:32:00,
2013-11-04 19:37:00,44.5,35.7,30.33,SE,135,0.1,1.0,71,0.00,CLR,,0.00,WeatherDisplay:10.37,2013-11-05 00:37:00,
2013-11-04 19:42:00,44.5,35.7,30.33,SE,136,0.0,0.0,71,0.00,CLR,,0.00,WeatherDisplay:10.37,2013-11-05 00:42:00,
2013-11-04 19:47:00,44.5,35.7,30.33,SE,136,0.8,3.5,71,0.00,CLR,,0.00,WeatherDisplay:10.37,2013-11-05 00:47:00,
2013-11-04 19:52:00,44.5,35.7,30.33,SE,136,0.0,0.0,71,0.00,CLR,,0.00,WeatherDisplay:10.37,2013-11-05 00:52:00,
2013-11-04 19:57:00,44.4,35.6,30.32,SE,136,0.0,0.0,71,0.00,CLR,,0.00,WeatherDisplay:10.37,2013-11-05 00:57:00,
2013-11-04 20:02:00,44.4,35.9,30.33,SE,132,0.0,0.0,72,0.00,CLR,,0.00,WeatherDisplay:10.37,2013-11-05 01:02:00,
2013-11-04 20:07:00,44.3,35.8,30.32,SE,132,0.0,1.2,72,0.00,CLR,,0.00,WeatherDisplay:10.37,2013-11-05 01:07:00,
2013-11-04 20:12:00,44.3,35.8,30.32,SE,132,0.0,0.0,72,0.00,CLR,,0.00,WeatherDisplay:10.37,2013-11-05 01:12:00,
2013-11-04 20:17:00,44.3,36.2,30.32,SE,132,0.0,0.0,73,0.00,CLR,,0.00,WeatherDisplay:10.37,2013-11-05 01:17:00,
2013-11-04 20:22:00,44.1,36.0,30.32,SE,132,0.0,0.0,73,0.00,CLR,,0.00,WeatherDisplay:10.37,2013-11-05 01:22:00,
2013-11-04 20:27:00,44.1,36.0,30.32,SE,132,0.0,0.0,73,0.00,CLR,,0.00,WeatherDisplay:10.37,2013-11-05 01:27:00,
2013-11-04 20:32:00,44.0,36.2,30.31,SE,132,0.0,0.0,74,0.00,CLR,,0.00,WeatherDisplay:10.37,2013-11-05 01:32:00,
2013-11-04 20:37:00,43.8,36.0,30.31,SE,132,0.0,0.0,74,0.00,CLR,,0.00,WeatherDisplay:10.37,2013-11-05 01:37:00,
2013-11-04 20:42:00,43.7,36.0,30.32,SE,132,0.0,0.0,74,0.00,CLR,,0.00,WeatherDisplay:10.37,2013-11-05 01:42:00,
2013-11-04 20:47:00,43.6,35.9,30.31,SE,132,0.1,1.2,74,0.00,CLR,,0.00,WeatherDisplay:10.37,2013-11-05 01:47:00,
2013-11-04 20:52:00,43.7,36.0,30.31,SE,132,0.0,0.0,74,0.00,CLR,,0.00,WeatherDisplay:10.37,2013-11-05 01:52:00,
2013-11-04 20:57:00,43.7,36.0,30.31,ESE,123,1.4,4.0,74,0.00,CLR,,0.00,WeatherDisplay:10.37,2013-11-05 01:57:00,
2013-11-04 21:02:00,44.0,36.2,30.32,SE,124,0.0,1.2,74,0.00,CLR,,0.00,WeatherDisplay:10.37,2013-11-05 02:02:00,
2013-11-04 21:07:00,44.1,36.3,30.32,SE,124,0.0,0.0,74,0.00,CLR,,0.00,WeatherDisplay:10.37,2013-11-05 02:07:00,
2013-11-04 21:12:00,44.1,36.3,30.32,SE,125,0.3,8.0,74,0.00,CLR,,0.00,WeatherDisplay:10.37,2013-11-05 02:12:00,
2013-11-04 21:17:00,44.2,36.8,30.32,SE,140,0.0,0.0,75,0.00,CLR,,0.00,WeatherDisplay:10.37,2013-11-05 02:17:00,
2013-11-04 21:22:00,44.2,36.8,30.32,SE,140,0.0,0.0,75,0.00,CLR,,0.00,WeatherDisplay:10.37,2013-11-05 02:22:00,
2013-11-04 21:27:00,44.3,36.9,30.32,SE,140,0.0,0.0,75,0.00,CLR,,0.00,WeatherDisplay:10.37,2013-11-05 02:27:00,
2013-11-04 21:32:00,44.3,36.9,30.32,SE,140,0.1,1.2,75,0.00,CLR,,0.00,WeatherDisplay:10.37,2013-11-05 02:32:00,
2013-11-04 21:37:00,44.2,36.8,30.32,SE,140,0.0,0.0,75,0.00,CLR,,0.00,WeatherDisplay:10.37,2013-11-05 02:37:00,
2013-11-04 21:42:00,44.2,37.1,30.32,SE,140,0.0,0.0,76,0.00,CLR,,0.00,WeatherDisplay:10.37,2013-11-05 02:42:00,
2013-11-04 21:47:00,44.1,37.0,30.32,SE,141,0.0,1.2,76,0.00,CLR,,0.00,WeatherDisplay:10.37,2013-11-05 02:47:00,
2013-11-04 21:52:00,44.1,37.0,30.32,SE,141,0.0,0.0,76,0.00,CLR,,0.00,WeatherDisplay:10.37,2013-11-05 02:52:00,
2013-11-04 21:57:00,44.1,37.0,30.32,SE,141,0.0,0.0,76,0.00,CLR,,0.00,WeatherDisplay:10.37,2013-11-05 02:57:00,
2013-11-04 22:02:00,44.0,37.3,30.32,SE,140,0.0,1.2,77,0.00,CLR,,0.00,WeatherDisplay:10.37,2013-11-05 03:02:00,
2013-11-04 22:07:00,43.8,37.1,30.32,SE,140,0.0,1.2,77,0.00,CLR,,0.00,WeatherDisplay:10.37,2013-11-05 03:07:00,
2013-11-04 22:12:00,43.7,37.0,30.32,SE,140,0.0,0.0,77,0.00,CLR,,0.00,WeatherDisplay:10.37,2013-11-05 03:12:00,
2013-11-04 22:17:00,43.7,37.0,30.32,SE,140,0.3,1.2,77,0.00,CLR,,0.00,WeatherDisplay:10.37,2013-11-05 03:17:00,
2013-11-04 22:22:00,43.8,37.1,30.32,SE,142,0.0,3.5,77,0.00,CLR,,0.00,WeatherDisplay:10.37,2013-11-05 03:22:00,
2013-11-04 22:27:00,44.0,37.3,30.32,SE,143,0.0,1.2,77,0.00,CLR,,0.00,WeatherDisplay:10.37,2013-11-05 03:27:00,
2013-11-04 22:32:00,44.1,37.3,30.32,SE,143,0.0,0.0,77,0.00,CLR,,0.00,WeatherDisplay:10.37,2013-11-05 03:32:00,
2013-11-04 22:37:00,44.1,37.3,30.32,SE,143,0.0,0.0,77,0.00,CLR,,0.00,WeatherDisplay:10.37,2013-11-05 03:37:00,
2013-11-04 22:42:00,44.0,37.3,30.32,SE,143,0.0,0.0,77,0.00,CLR,,0.00,WeatherDisplay:10.37,2013-11-05 03:42:00,
2013-11-04 22:47:00,43.9,37.2,30.32,SE,143,0.0,0.0,77,0.00,CLR,,0.00,WeatherDisplay:10.37,2013-11-05 03:47:00,
2013-11-04 22:52:00,43.8,37.4,30.32,SE,143,0.0,1.2,78,0.00,CLR,,0.00,WeatherDisplay:10.37,2013-11-05 03:52:00,
2013-11-04 22:57:00,43.8,37.4,30.32,SE,143,0.0,0.0,78,0.00,CLR,,0.00,WeatherDisplay:10.37,2013-11-05 03:57:00,
2013-11-04 23:02:00,43.9,37.5,30.32,SE,143,0.0,0.0,78,0.00,CLR,,0.00,WeatherDisplay:10.37,2013-11-05 04:02:00,
2013-11-04 23:07:00,43.9,37.5,30.31,SE,143,0.0,0.0,78,0.00,CLR,,0.00,WeatherDisplay:10.37,2013-11-05 04:07:00,
2013-11-04 23:12:00,43.9,37.5,30.32,SE,143,0.0,0.0,78,0.00,CLR,,0.00,WeatherDisplay:10.37,2013-11-05 04:12:00,
2013-11-04 23:17:00,43.9,37.5,30.31,SE,143,0.0,0.0,78,0.00,CLR,,0.00,WeatherDisplay:10.37,2013-11-05 04:17:00,
2013-11-04 23:22:00,43.9,37.8,30.31,SE,143,0.0,0.0,79,0.00,CLR,,0.00,WeatherDisplay:10.37,2013-11-05 04:22:00,
2013-11-04 23:27:00,43.9,37.8,30.31,SE,143,0.0,0.0,79,0.00,CLR,,0.00,WeatherDisplay:10.37,2013-11-05 04:27:00,
2013-11-04 23:32:00,44.0,37.9,30.31,SE,143,0.0,0.0,79,0.00,CLR,,0.00,WeatherDisplay:10.37,2013-11-05 04:32:00,
2013-11-04 23:37:00,44.1,38.0,30.31,SE,143,0.0,0.0,79,0.00,CLR,,0.00,WeatherDisplay:10.37,2013-11-05 04:37:00,
2013-11-04 23:42:00,44.1,38.0,30.31,SE,143,0.0,0.0,79,0.00,CLR,,0.00,WeatherDisplay:10.37,2013-11-05 04:42:00,
2013-11-04 23:47:00,44.0,37.9,30.31,SE,143,0.0,0.0,79,0.00,CLR,,0.00,WeatherDisplay:10.37,2013-11-05 04:47:00,
2013-11-04 23:52:00,43.9,37.8,30.31,SE,143,0.0,0.0,79,0.00,CLR,,0.00,WeatherDisplay:10.37,2013-11-05 04:52:00,
2013-11-04 23:57:00,43.7,37.6,30.31,SE,143,0.0,0.0,79,0.00,CLR,,0.00,WeatherDisplay:10.37,2013-11-05 04:57:00,